Time;durP1;ratioP1;P1;durP2;ratioP2;P2;SDS_P1;SDS_P2;PMS_P1;PMS_P2;Temp;Humidity;BMP_temperature;BMP_pressure;BME280_temperature;BME280_humidity;BME280_pressure;Samples;Min_cycle;Max_cycle;Signal;HPM_P1;HPM_P2
2023/03/26 00:02:34;;;;;;;1.38;1.27;;;8.40;99.90;;;;;;5013311;28;20053;-47
2023/03/26 00:05:20;;;;;;;4.45;1.65;;;8.50;99.90;;;;;;5011285;28;20092;-52
2023/03/26 00:08:10;;;;;;;1.52;1.42;;;8.60;99.90;;;;;;5012413;28;20058;-52
2023/03/26 00:10:56;;;;;;;2.03;1.40;;;8.60;99.90;;;;;;5012677;28;20120;-54
2023/03/26 00:13:45;;;;;;;2.13;1.40;;;8.60;99.90;;;;;;5011548;28;20112;-56
2023/03/26 00:16:32;;;;;;;1.40;1.30;;;8.60;99.90;;;;;;5010416;28;20509;-48
2023/03/26 00:19:18;;;;;;;1.52;1.42;;;8.60;99.90;;;;;;4985428;28;20451;-48
2023/03/26 00:22:04;;;;;;;1.70;1.60;;;8.70;99.90;;;;;;5006680;28;20125;-50
2023/03/26 00:24:50;;;;;;;1.52;1.42;;;8.60;99.90;;;;;;5011129;28;20129;-47
2023/03/26 00:27:37;;;;;;;2.05;1.50;;;8.60;99.90;;;;;;4996836;28;20411;-48
2023/03/26 00:30:23;;;;;;;2.88;1.70;;;8.60;99.90;;;;;;4993293;28;20042;-47
2023/03/26 00:33:10;;;;;;;1.85;1.65;;;8.50;99.90;;;;;;4990988;28;20068;-54
2023/03/26 00:35:59;;;;;;;1.63;1.48;;;8.60;99.90;;;;;;5011621;28;20398;-48
2023/03/26 00:38:46;;;;;;;1.70;1.60;;;8.60;99.90;;;;;;5011272;28;20501;-51
2023/03/26 00:41:35;;;;;;;1.95;1.60;;;8.60;99.90;;;;;;5010152;28;20395;-52
2023/03/26 00:44:21;;;;;;;3.15;1.50;;;8.60;99.90;;;;;;4996441;28;20034;-52
2023/03/26 00:47:08;;;;;;;4.22;1.80;;;8.70;99.90;;;;;;5010941;28;20030;-49
2023/03/26 00:49:54;;;;;;;3.28;1.70;;;8.60;99.90;;;;;;4997589;28;20021;-48
2023/03/26 00:52:42;;;;;;;2.38;1.88;;;8.60;99.90;;;;;;5012706;28;20030;-47
2023/03/26 00:55:28;;;;;;;2.03;1.83;;;8.50;99.90;;;;;;5011941;28;20026;-49
2023/03/26 00:58:15;;;;;;;1.73;1.60;;;8.60;99.90;;;;;;5012295;28;20026;-50
2023/03/26 01:01:07;;;;;;;5.82;1.92;;;8.50;99.90;;;;;;5010420;28;20037;-51
2023/03/26 01:03:57;;;;;;;2.38;1.50;;;8.40;99.90;;;;;;5010639;28;20396;-51
2023/03/26 01:06:44;;;;;;;2.13;1.70;;;8.40;99.90;;;;;;5010426;28;20021;-51
2023/03/26 01:09:34;;;;;;;1.83;1.35;;;8.40;99.90;;;;;;4997386;28;20026;-48
2023/03/26 01:12:24;;;;;;;2.25;1.75;;;8.40;99.90;;;;;;5011474;28;20401;-49
2023/03/26 01:15:12;;;;;;;1.45;1.35;;;8.30;99.90;;;;;;5008706;28;20034;-49
2023/03/26 01:17:58;;;;;;;2.10;1.40;;;8.40;99.90;;;;;;4985097;28;20038;-50
2023/03/26 01:20:48;;;;;;;1.40;1.27;;;8.40;99.90;;;;;;4998396;28;20429;-47
2023/03/26 01:23:38;;;;;;;2.97;1.98;;;8.50;99.90;;;;;;5011681;28;20462;-52
2023/03/26 01:27:00;;;;;;;3.17;1.70;;;8.40;99.90;;;;;;4996591;28;20030;-48
2023/03/26 01:29:51;;;;;;;2.65;1.70;;;8.40;99.90;;;;;;5013905;28;20286;-50
2023/03/26 01:33:00;;;;;;;1.55;1.45;;;8.40;99.90;;;;;;4993683;28;20030;-49
2023/03/26 01:35:56;;;;;;;2.53;1.85;;;8.40;99.90;;;;;;5002404;28;20029;-48
2023/03/26 01:39:08;;;;;;;2.45;1.67;;;8.40;99.90;;;;;;5014142;28;20101;-48
2023/03/26 01:42:01;;;;;;;2.42;1.65;;;8.40;99.90;;;;;;5011274;28;20037;-49
2023/03/26 01:44:55;;;;;;;2.60;1.58;;;8.40;99.90;;;;;;5011808;28;20029;-47
2023/03/26 01:47:42;;;;;;;3.03;1.67;;;8.30;99.90;;;;;;4992139;28;20092;-48
2023/03/26 01:50:28;;;;;;;6.20;1.90;;;8.30;99.90;;;;;;4995531;28;20105;-50
2023/03/26 01:53:14;;;;;;;1.83;1.73;;;8.40;99.90;;;;;;5010203;28;20037;-50
2023/03/26 01:56:15;;;;;;;2.83;1.77;;;8.30;99.90;;;;;;5009286;28;20041;-54
2023/03/26 01:59:26;;;;;;;3.42;2.53;;;8.30;99.90;;;;;;5009958;28;20026;-51
2023/03/26 02:02:15;;;;;;;2.35;1.95;;;8.30;99.90;;;;;;5010328;28;20030;-47
2023/03/26 02:05:26;;;;;;;4.95;2.17;;;8.20;99.90;;;;;;5010229;28;20057;-50
2023/03/26 02:08:24;;;;;;;4.07;2.10;;;8.20;99.90;;;;;;4991979;28;20037;-49
2023/03/26 02:11:13;;;;;;;4.50;2.20;;;8.20;99.90;;;;;;4998490;28;20491;-49
2023/03/26 02:13:59;;;;;;;3.63;2.30;;;8.20;99.90;;;;;;5010003;28;20045;-50
2023/03/26 02:16:45;;;;;;;2.90;2.20;;;8.10;99.90;;;;;;4998672;28;20058;-52
2023/03/26 02:19:31;;;;;;;3.78;2.42;;;8.10;99.90;;;;;;5018269;28;20053;-55
2023/03/26 02:22:17;;;;;;;3.55;2.28;;;8.10;99.90;;;;;;5017423;28;20049;-52
2023/03/26 02:25:03;;;;;;;4.65;2.20;;;8.10;99.90;;;;;;5016726;28;20026;-53
2023/03/26 02:27:50;;;;;;;4.53;2.45;;;8.10;99.90;;;;;;5013411;28;20052;-47
2023/03/26 02:30:36;;;;;;;4.65;2.70;;;8.00;99.90;;;;;;5011389;28;20437;-50
2023/03/26 02:33:22;;;;;;;5.97;2.55;;;8.00;99.90;;;;;;5009608;28;20461;-48
2023/03/26 02:36:09;;;;;;;3.55;2.55;;;8.10;99.90;;;;;;5008784;28;20030;-50
2023/03/26 02:38:56;;;;;;;3.35;2.28;;;8.10;99.90;;;;;;5009521;28;20030;-50
2023/03/26 02:41:42;;;;;;;4.57;2.58;;;8.10;99.90;;;;;;5008884;28;20057;-51
2023/03/26 02:44:28;;;;;;;6.05;2.70;;;8.10;99.90;;;;;;5010185;28;20033;-51
2023/03/26 02:47:14;;;;;;;3.38;2.50;;;8.00;99.90;;;;;;5010579;28;20126;-51
2023/03/26 02:50:02;;;;;;;3.05;2.30;;;8.10;99.90;;;;;;5010016;28;20026;-51
2023/03/26 02:52:48;;;;;;;4.47;2.70;;;8.10;99.90;;;;;;4980300;28;20117;-52
2023/03/26 02:55:34;;;;;;;4.63;2.70;;;8.10;99.90;;;;;;5008601;28;20034;-52
2023/03/26 02:58:20;;;;;;;5.00;2.65;;;8.00;99.90;;;;;;5010240;28;20026;-50
2023/03/26 03:01:06;;;;;;;5.90;2.83;;;8.00;99.90;;;;;;5013534;28;20046;-51
2023/03/26 03:03:53;;;;;;;4.13;2.78;;;7.90;99.90;;;;;;5013009;28;20030;-50
2023/03/26 03:06:39;;;;;;;7.25;3.00;;;7.90;99.90;;;;;;5012337;28;20041;-52
2023/03/26 03:09:25;;;;;;;3.97;2.83;;;7.90;99.90;;;;;;5014396;28;20076;-48
2023/03/26 03:12:11;;;;;;;6.15;2.90;;;7.90;99.90;;;;;;5013054;28;20037;-49
2023/03/26 03:14:57;;;;;;;4.40;3.70;;;7.80;99.90;;;;;;5011854;28;20117;-51
2023/03/26 03:17:42;;;;;;;7.53;3.45;;;7.70;99.90;;;;;;5013220;28;20022;-51
2023/03/26 03:20:29;;;;;;;7.28;2.92;;;7.80;99.90;;;;;;4998475;28;20474;-48
2023/03/26 03:23:15;;;;;;;7.10;4.47;;;7.80;99.90;;;;;;5013049;28;20510;-48
2023/03/26 03:26:01;;;;;;;8.45;3.35;;;7.80;99.90;;;;;;5011119;28;20041;-48
2023/03/26 03:28:48;;;;;;;6.90;3.72;;;7.80;99.90;;;;;;5030023;28;20026;-48
2023/03/26 03:31:34;;;;;;;6.57;3.20;;;7.80;99.90;;;;;;4987834;28;20049;-50
2023/03/26 03:34:20;;;;;;;6.18;3.60;;;7.70;99.90;;;;;;5013306;28;20498;-49
2023/03/26 03:37:06;;;;;;;7.40;3.42;;;7.80;99.90;;;;;;4979046;28;20113;-49
2023/03/26 03:39:52;;;;;;;5.68;3.22;;;7.80;99.90;;;;;;5011193;28;20022;-52
2023/03/26 03:42:38;;;;;;;5.15;3.10;;;7.80;99.90;;;;;;4998230;28;20666;-51
2023/03/26 03:45:24;;;;;;;6.55;3.20;;;7.80;99.90;;;;;;5012640;28;20028;-50
2023/03/26 03:48:10;;;;;;;5.53;3.22;;;7.80;99.90;;;;;;5013160;28;20398;-53
2023/03/26 03:50:56;;;;;;;4.68;3.38;;;7.80;99.90;;;;;;5013248;28;20399;-51
2023/03/26 03:53:44;;;;;;;5.70;3.20;;;7.80;99.90;;;;;;4998899;28;20570;-53
2023/03/26 03:56:30;;;;;;;5.95;3.47;;;7.80;99.90;;;;;;5013248;28;20061;-50
2023/03/26 03:59:16;;;;;;;9.20;3.80;;;7.80;99.90;;;;;;4998672;28;20038;-54
2023/03/26 04:02:02;;;;;;;10.98;3.80;;;7.80;99.90;;;;;;5013180;28;20166;-53
2023/03/26 04:04:49;;;;;;;9.32;3.67;;;7.80;99.90;;;;;;5012735;28;20497;-50
2023/03/26 04:07:34;;;;;;;7.25;3.60;;;7.80;99.90;;;;;;5011642;28;20026;-50
2023/03/26 04:10:20;;;;;;;7.05;3.42;;;7.70;99.90;;;;;;5010996;28;20116;-51
2023/03/26 04:13:06;;;;;;;7.15;3.47;;;7.70;99.90;;;;;;4994094;28;20030;-48
2023/03/26 04:15:52;;;;;;;6.55;3.78;;;7.70;99.90;;;;;;5000013;28;20065;-52
2023/03/26 04:18:38;;;;;;;4.18;3.55;;;7.70;99.90;;;;;;5011859;28;20053;-52
2023/03/26 04:21:25;;;;;;;10.18;4.13;;;7.70;99.90;;;;;;5011792;28;20038;-50
2023/03/26 04:24:11;;;;;;;7.68;3.50;;;7.70;99.90;;;;;;5014121;28;20052;-51
2023/03/26 04:26:59;;;;;;;5.88;3.47;;;7.80;99.90;;;;;;4995781;28;20380;-49
2023/03/26 04:29:48;;;;;;;6.13;3.13;;;7.80;99.90;;;;;;5007670;28;20022;-49
2023/03/26 04:32:37;;;;;;;6.75;3.30;;;7.80;99.90;;;;;;5017503;28;20036;-48
2023/03/26 04:35:23;;;;;;;5.60;3.25;;;7.80;99.90;;;;;;5012616;28;20033;-49
2023/03/26 04:38:10;;;;;;;5.20;3.28;;;7.90;99.90;;;;;;4998066;28;20100;-51
2023/03/26 04:40:58;;;;;;;7.53;3.85;;;7.90;99.90;;;;;;5010813;28;20076;-54
2023/03/26 04:43:49;;;;;;;6.65;3.70;;;7.90;99.90;;;;;;5010991;28;20129;-52
2023/03/26 04:46:35;;;;;;;5.55;3.08;;;8.00;99.90;;;;;;4993370;28;20030;-46
2023/03/26 04:49:21;;;;;;;5.57;3.10;;;8.00;99.90;;;;;;4990276;28;20037;-49
2023/03/26 04:52:10;;;;;;;5.22;3.13;;;8.00;99.90;;;;;;5011336;28;20029;-51
2023/03/26 04:54:56;;;;;;;6.53;4.15;;;8.00;99.90;;;;;;5011144;28;20120;-46
2023/03/26 04:57:47;;;;;;;4.82;3.00;;;8.10;99.90;;;;;;5012962;28;20026;-49
2023/03/26 05:00:33;;;;;;;6.10;3.17;;;8.10;99.90;;;;;;5012160;28;20030;-51
2023/03/26 05:03:19;;;;;;;6.28;3.53;;;8.10;99.90;;;;;;5011201;28;20220;-53
2023/03/26 05:06:06;;;;;;;5.00;3.55;;;8.20;99.90;;;;;;5009449;28;20402;-48
2023/03/26 05:08:52;;;;;;;7.35;3.10;;;8.20;99.90;;;;;;5011961;28;20030;-48
2023/03/26 05:11:39;;;;;;;4.63;2.92;;;8.10;99.90;;;;;;5010600;28;20033;-48
2023/03/26 05:14:24;;;;;;;5.47;2.88;;;8.10;99.90;;;;;;5009857;28;20405;-48
2023/03/26 05:17:13;;;;;;;5.97;3.10;;;8.10;99.90;;;;;;4994692;28;20508;-48
2023/03/26 05:20:00;;;;;;;4.97;3.00;;;8.20;99.90;;;;;;5001609;28;20052;-53
2023/03/26 05:22:52;;;;;;;4.35;3.17;;;8.10;99.90;;;;;;5013647;28;20033;-49
2023/03/26 05:25:38;;;;;;;5.93;3.35;;;8.20;99.90;;;;;;5011832;28;20557;-48
2023/03/26 05:28:25;;;;;;;5.45;3.17;;;8.20;99.90;;;;;;4997067;28;20410;-53
2023/03/26 05:31:11;;;;;;;4.18;3.08;;;8.20;99.90;;;;;;5011730;28;20033;-54
2023/03/26 05:33:59;;;;;;;4.85;2.90;;;8.20;99.90;;;;;;5012953;28;20057;-49
2023/03/26 05:36:45;;;;;;;4.85;3.03;;;8.20;99.90;;;;;;5011737;28;20026;-48
2023/03/26 05:39:34;;;;;;;5.03;3.20;;;8.20;99.90;;;;;;4982812;28;20359;-49
2023/03/26 05:42:20;;;;;;;4.72;3.08;;;8.20;99.90;;;;;;4996395;28;20073;-48
2023/03/26 05:45:08;;;;;;;4.18;2.97;;;8.20;99.90;;;;;;5009263;28;20030;-48
2023/03/26 05:47:55;;;;;;;4.05;2.85;;;8.20;99.90;;;;;;5009718;28;20038;-47
2023/03/26 05:50:41;;;;;;;3.65;2.92;;;8.20;99.90;;;;;;5009455;28;20112;-48
2023/03/26 05:53:27;;;;;;;4.93;3.25;;;8.20;99.90;;;;;;5010332;28;20042;-48
2023/03/26 05:56:13;;;;;;;5.97;3.00;;;8.20;99.90;;;;;;5011053;28;20030;-52
2023/03/26 05:58:59;;;;;;;5.35;2.95;;;8.20;99.90;;;;;;5009813;28;20038;-48
2023/03/26 06:01:45;;;;;;;6.95;2.70;;;8.30;99.90;;;;;;5011967;28;20026;-49
2023/03/26 06:04:31;;;;;;;3.30;3.00;;;8.30;99.90;;;;;;4990725;28;20026;-51
2023/03/26 06:07:18;;;;;;;4.93;2.90;;;8.30;99.90;;;;;;4980924;28;20026;-47
2023/03/26 06:10:05;;;;;;;3.15;2.60;;;8.40;99.90;;;;;;5009605;28;20114;-49
2023/03/26 06:12:50;;;;;;;3.95;2.78;;;8.30;99.90;;;;;;5011308;28;20070;-50
2023/03/26 06:15:36;;;;;;;5.65;3.25;;;8.40;99.90;;;;;;5009956;28;20037;-46
2023/03/26 06:18:23;;;;;;;3.80;2.92;;;8.30;99.90;;;;;;5009475;28;20034;-51
2023/03/26 06:21:09;;;;;;;3.95;3.00;;;8.40;99.90;;;;;;4991254;28;20149;-49
2023/03/26 06:23:55;;;;;;;3.30;2.70;;;8.50;99.90;;;;;;5007036;28;20037;-49
2023/03/26 06:26:42;;;;;;;4.43;3.28;;;8.60;99.90;;;;;;5010579;28;20033;-48
2023/03/26 06:29:28;;;;;;;4.57;3.28;;;8.60;99.90;;;;;;5009734;28;20109;-48
2023/03/26 06:32:14;;;;;;;4.47;3.20;;;8.70;99.90;;;;;;5007760;28;20030;-47
2023/03/26 06:35:00;;;;;;;5.38;3.53;;;8.70;99.90;;;;;;5011685;28;20038;-49
2023/03/26 06:37:46;;;;;;;4.43;3.03;;;8.80;99.90;;;;;;4999697;28;20062;-54
2023/03/26 06:40:32;;;;;;;4.85;2.88;;;8.90;99.90;;;;;;5012029;28;20087;-50
2023/03/26 06:43:19;;;;;;;5.13;3.05;;;8.90;99.90;;;;;;5014772;28;20079;-49
2023/03/26 06:46:05;;;;;;;7.65;3.30;;;8.90;99.90;;;;;;4995877;28;20038;-49
2023/03/26 06:48:51;;;;;;;5.00;3.22;;;8.90;99.90;;;;;;5009981;28;20079;-50
2023/03/26 06:51:39;;;;;;;5.28;3.30;;;8.90;99.90;;;;;;5014883;28;20125;-48
2023/03/26 06:54:26;;;;;;;4.55;3.30;;;8.90;99.90;;;;;;4999112;28;20028;-52
2023/03/26 06:57:12;;;;;;;4.90;2.90;;;9.00;99.90;;;;;;5013048;28;20088;-51
2023/03/26 06:59:58;;;;;;;4.90;2.80;;;9.10;99.90;;;;;;5012988;28;20034;-52
2023/03/26 07:02:44;;;;;;;5.35;2.70;;;8.90;99.90;;;;;;4979304;28;20042;-50
2023/03/26 07:05:30;;;;;;;5.85;3.10;;;8.90;99.90;;;;;;4997071;28;20410;-50
2023/03/26 07:08:16;;;;;;;6.20;2.80;;;9.00;99.90;;;;;;5012918;28;20021;-50
2023/03/26 07:11:02;;;;;;;4.57;3.13;;;9.10;99.90;;;;;;5014237;28;20034;-50
2023/03/26 07:13:48;;;;;;;3.28;2.92;;;9.10;99.90;;;;;;5000380;28;20502;-50
2023/03/26 07:16:34;;;;;;;8.38;3.10;;;9.30;99.90;;;;;;5012772;28;20121;-50
2023/03/26 07:19:20;;;;;;;6.07;3.33;;;9.40;99.90;;;;;;5012636;28;20104;-49
2023/03/26 07:22:06;;;;;;;6.18;3.10;;;9.40;99.90;;;;;;5014118;28;20026;-49
2023/03/26 07:24:52;;;;;;;6.35;2.92;;;9.50;99.90;;;;;;5018867;28;20483;-47
2023/03/26 07:28:13;;;;;;;5.90;2.95;;;9.50;99.90;;;;;;4998258;28;20049;-54
2023/03/26 07:31:08;;;;;;;7.85;3.55;;;9.60;99.90;;;;;;5011608;28;20038;-48
2023/03/26 07:34:15;;;;;;;7.90;3.67;;;9.70;99.90;;;;;;5009623;28;20041;-50
2023/03/26 07:37:07;;;;;;;6.20;4.03;;;9.70;99.90;;;;;;5011797;28;20041;-53
2023/03/26 07:40:11;;;;;;;7.07;3.25;;;9.70;99.90;;;;;;5012435;28;20033;-48
2023/03/26 07:43:12;;;;;;;5.60;3.17;;;9.60;99.90;;;;;;5012072;28;20061;-50
2023/03/26 07:45:58;;;;;;;10.20;4.05;;;9.60;99.90;;;;;;4993064;28;20117;-49
2023/03/26 07:48:48;;;;;;;6.82;3.67;;;9.50;99.90;;;;;;4995119;28;20503;-48
2023/03/26 07:51:34;;;;;;;11.23;4.25;;;9.40;99.90;;;;;;5005404;28;20026;-47
2023/03/26 07:54:20;;;;;;;10.38;3.70;;;9.40;99.90;;;;;;4979211;28;20041;-47
2023/03/26 07:57:33;;;;;;;10.98;3.80;;;9.50;99.90;;;;;;5012340;28;20467;-51
2023/03/26 08:00:32;;;;;;;7.22;3.45;;;9.70;99.90;;;;;;5014788;28;20124;-54
2023/03/26 08:03:18;;;;;;;7.93;3.25;;;9.70;99.90;;;;;;5010344;28;20025;-53
2023/03/26 08:06:26;;;;;;;11.45;4.10;;;9.60;99.90;;;;;;5010907;28;20057;-54
2023/03/26 08:09:27;;;;;;;11.30;4.03;;;9.70;99.90;;;;;;4996704;28;20022;-52
2023/03/26 08:12:38;;;;;;;9.68;4.78;;;9.80;99.90;;;;;;5011721;28;20370;-49
2023/03/26 08:15:56;;;;;;;12.23;4.22;;;9.80;99.90;;;;;;5014628;28;20092;-52
2023/03/26 08:18:58;;;;;;;10.07;4.70;;;9.90;99.90;;;;;;5011123;28;20030;-56
2023/03/26 08:21:50;;;;;;;11.23;4.30;;;9.80;99.90;;;;;;5010803;28;20030;-49
2023/03/26 08:24:52;;;;;;;13.15;4.60;;;9.90;99.90;;;;;;5011386;28;20344;-52
2023/03/26 08:27:39;;;;;;;13.32;4.20;;;10.00;99.90;;;;;;4995780;28;20029;-50
2023/03/26 08:30:26;;;;;;;12.95;4.85;;;10.10;99.90;;;;;;5011855;28;20026;-47
2023/03/26 08:33:20;;;;;;;10.88;4.20;;;10.10;99.90;;;;;;5016690;28;20022;-53
2023/03/26 08:36:08;;;;;;;18.67;4.93;;;10.10;99.90;;;;;;5010728;28;20030;-48
2023/03/26 08:38:54;;;;;;;9.68;5.22;;;10.20;99.90;;;;;;5011846;28;20034;-48
2023/03/26 08:41:55;;;;;;;16.05;5.07;;;10.20;99.90;;;;;;5010922;28;20034;-50
2023/03/26 08:45:05;;;;;;;12.77;4.75;;;10.30;99.90;;;;;;4999189;28;20022;-52
2023/03/26 08:48:22;;;;;;;14.38;5.65;;;10.20;99.90;;;;;;5010198;28;20092;-52
2023/03/26 08:51:34;;;;;;;12.57;5.68;;;10.40;99.90;;;;;;5010366;28;20514;-49
2023/03/26 08:54:26;;;;;;;13.68;5.80;;;10.50;99.90;;;;;;5010801;28;20041;-52
2023/03/26 08:57:12;;;;;;;15.23;4.75;;;10.50;99.90;;;;;;5008810;28;20112;-50
2023/03/26 09:00:09;;;;;;;14.15;5.13;;;10.60;99.90;;;;;;4971799;28;1101668;-47
2023/03/26 09:03:28;;;;;;;11.07;4.60;;;10.60;99.90;;;;;;4991734;28;20027;-49
2023/03/26 09:06:51;;;;;;;16.42;6.15;;;10.60;99.90;;;;;;5003170;28;20490;-50
2023/03/26 09:09:52;;;;;;;15.68;4.95;;;10.60;99.90;;;;;;5006333;28;20104;-49
2023/03/26 09:13:15;;;;;;;14.30;5.30;;;10.80;99.90;;;;;;4999955;28;20490;-48
2023/03/26 09:16:48;;;;;;;11.65;4.47;;;10.90;99.90;;;;;;4983276;28;20513;-47
2023/03/26 09:19:52;;;;;;;14.02;5.30;;;11.20;99.90;;;;;;4991158;28;20415;-50
2023/03/26 09:22:59;;;;;;;13.02;5.72;;;11.30;99.90;;;;;;5026214;28;20052;-49
2023/03/26 09:26:01;;;;;;;16.48;6.32;;;11.30;99.90;;;;;;5025134;28;20014;-51
2023/03/26 09:29:20;;;;;;;12.93;5.20;;;11.20;99.90;;;;;;5002639;28;20514;-51
2023/03/26 09:32:41;;;;;;;14.48;6.05;;;11.10;99.90;;;;;;4999177;28;20416;-52
2023/03/26 09:35:47;;;;;;;19.05;5.97;;;11.10;99.90;;;;;;4992332;28;20030;-47
2023/03/26 09:38:59;;;;;;;15.25;5.97;;;11.10;99.90;;;;;;5010880;28;20084;-50
2023/03/26 09:42:06;;;;;;;12.30;5.72;;;11.10;99.90;;;;;;4996550;28;20026;-53
2023/03/26 09:45:30;;;;;;;17.30;6.10;;;11.10;99.90;;;;;;4991620;28;20034;-53
2023/03/26 09:48:28;;;;;;;15.52;6.13;;;11.30;99.90;;;;;;5027101;28;20106;-56
2023/03/26 09:51:30;;;;;;;15.32;6.00;;;11.60;99.90;;;;;;5015608;28;20514;-49
2023/03/26 09:54:31;;;;;;;16.98;6.68;;;11.90;99.90;;;;;;5009708;28;20116;-52
2023/03/26 09:57:29;;;;;;;12.70;5.93;;;11.90;99.90;;;;;;4990538;28;20065;-52
2023/03/26 10:00:49;;;;;;;13.80;6.35;;;11.70;99.90;;;;;;4991774;28;20517;-51
2023/03/26 10:03:44;;;;;;;16.25;7.50;;;11.80;99.90;;;;;;5013142;28;20029;-56
2023/03/26 10:06:59;;;;;;;14.88;6.85;;;11.80;99.90;;;;;;5005147;28;20033;-54
2023/03/26 10:10:01;;;;;;;18.45;6.60;;;11.80;99.90;;;;;;5009741;28;20430;-49
2023/03/26 10:12:58;;;;;;;13.60;5.60;;;12.10;99.90;;;;;;4996985;28;20030;-49
2023/03/26 10:16:08;;;;;;;10.80;5.80;;;12.30;99.90;;;;;;4990410;28;20034;-49
2023/03/26 10:19:00;;;;;;;11.75;6.10;;;12.60;99.60;;;;;;5001015;28;20034;-53
2023/03/26 10:22:09;;;;;;;9.75;5.70;;;12.80;99.00;;;;;;5004353;28;20054;-51
2023/03/26 10:25:13;;;;;;;14.25;6.30;;;12.60;98.80;;;;;;4999576;28;20517;-51
2023/03/26 10:28:12;;;;;;;13.52;5.95;;;12.40;98.60;;;;;;5000030;28;20026;-50
2023/03/26 10:31:28;;;;;;;12.90;6.18;;;12.40;98.20;;;;;;4993341;28;20022;-49
2023/03/26 10:34:45;;;;;;;14.07;5.60;;;12.40;98.50;;;;;;4998773;28;20406;-50
2023/03/26 10:37:46;;;;;;;15.05;6.30;;;12.40;98.50;;;;;;4990411;28;20030;-53
2023/03/26 10:41:11;;;;;;;12.13;5.70;;;12.40;98.80;;;;;;4986830;28;20537;-49
2023/03/26 10:44:34;;;;;;;13.57;6.47;;;12.40;98.80;;;;;;4949485;28;20030;-50
2023/03/26 10:47:37;;;;;;;12.63;5.07;;;12.20;99.80;;;;;;4929400;29;20032;-53
2023/03/26 10:50:48;;;;;;;9.13;4.80;;;12.30;99.30;;;;;;4999627;28;20030;-50
2023/03/26 10:53:44;;;;;;;9.20;5.70;;;12.40;99.70;;;;;;4991407;28;20486;-50
2023/03/26 10:56:48;;;;;;;13.27;5.28;;;12.40;99.80;;;;;;5008700;28;20248;-47
2023/03/26 10:59:34;;;;;;;15.25;5.45;;;12.40;99.80;;;;;;5009886;28;20099;-53
2023/03/26 11:02:37;;;;;;;12.65;5.15;;;12.60;99.70;;;;;;5007897;28;20033;-48
2023/03/26 11:05:37;;;;;;;14.82;5.68;;;12.50;99.40;;;;;;5008517;28;20033;-52
2023/03/26 11:08:40;;;;;;;16.50;6.20;;;12.20;99.80;;;;;;5009583;28;20121;-53
2023/03/26 11:11:43;;;;;;;18.23;5.13;;;12.30;99.90;;;;;;4989452;28;20038;-53
2023/03/26 11:14:53;;;;;;;13.52;5.88;;;12.40;99.60;;;;;;4997196;28;20129;-49
2023/03/26 11:17:48;;;;;;;14.52;5.93;;;12.50;99.30;;;;;;5008358;28;20022;-51
2023/03/26 11:20:40;;;;;;;14.13;6.10;;;12.50;99.20;;;;;;4999307;28;20037;-50
2023/03/26 11:23:46;;;;;;;14.13;5.82;;;12.40;99.10;;;;;;5004538;28;20026;-56
2023/03/26 11:26:41;;;;;;;13.38;5.32;;;12.40;99.10;;;;;;5002955;28;20026;-49
2023/03/26 11:29:52;;;;;;;12.98;5.70;;;12.40;99.30;;;;;;4996624;28;20018;-51
2023/03/26 11:32:51;;;;;;;10.98;5.38;;;12.40;99.10;;;;;;5012599;28;20033;-52
2023/03/26 11:35:41;;;;;;;14.38;4.78;;;12.40;99.50;;;;;;5014017;28;20025;-56
2023/03/26 11:38:36;;;;;;;10.23;4.93;;;12.50;98.60;;;;;;4999296;28;20035;-50
2023/03/26 11:41:25;;;;;;;9.35;4.60;;;12.40;98.40;;;;;;4999162;28;20062;-52
2023/03/26 11:44:22;;;;;;;13.55;5.55;;;12.30;97.90;;;;;;5012492;28;20127;-49
2023/03/26 11:47:11;;;;;;;10.82;4.60;;;12.50;98.10;;;;;;4992625;28;20034;-56
2023/03/26 11:49:59;;;;;;;11.65;5.43;;;12.50;98.20;;;;;;4991578;28;20175;-48
2023/03/26 11:52:45;;;;;;;11.00;4.70;;;12.80;97.80;;;;;;5008214;28;20461;-55
2023/03/26 11:55:32;;;;;;;11.38;4.43;;;12.80;97.70;;;;;;5010962;28;20042;-51
2023/03/26 11:58:30;;;;;;;10.23;5.10;;;12.70;98.00;;;;;;5010982;28;20406;-52
2023/03/26 12:01:21;;;;;;;10.68;4.88;;;12.70;98.30;;;;;;5010645;28;20025;-51
2023/03/26 12:04:14;;;;;;;13.02;5.68;;;12.80;98.60;;;;;;5011394;28;20025;-50
2023/03/26 12:07:30;;;;;;;14.38;5.13;;;12.90;98.50;;;;;;5011496;28;20029;-49
2023/03/26 12:10:23;;;;;;;11.65;4.75;;;13.10;98.00;;;;;;4992517;28;20857;-48
2023/03/26 12:13:32;;;;;;;14.55;4.65;;;13.10;97.10;;;;;;4982115;28;20022;-50
2023/03/26 12:16:20;;;;;;;13.02;4.05;;;12.90;96.00;;;;;;5007408;28;20018;-48
2023/03/26 12:19:18;;;;;;;7.78;4.07;;;12.80;96.40;;;;;;4997831;28;20022;-50
2023/03/26 12:22:05;;;;;;;7.85;4.10;;;12.80;97.10;;;;;;4992506;28;20066;-51
2023/03/26 12:25:19;;;;;;;11.52;4.07;;;12.90;97.10;;;;;;4987217;28;20037;-51
2023/03/26 12:28:15;;;;;;;12.63;4.68;;;13.00;96.90;;;;;;4998595;28;20037;-52
2023/03/26 12:31:03;;;;;;;10.23;3.55;;;12.90;96.30;;;;;;5002001;28;20038;-51
2023/03/26 12:34:14;;;;;;;9.15;4.07;;;12.60;96.60;;;;;;5013189;28;20025;-49
2023/03/26 12:37:01;;;;;;;12.02;4.20;;;12.60;96.90;;;;;;4991077;28;20467;-54
2023/03/26 12:39:47;;;;;;;15.38;4.60;;;12.50;97.20;;;;;;5007455;28;20494;-54
2023/03/26 12:42:33;;;;;;;13.65;4.65;;;12.30;98.10;;;;;;5011809;28;20465;-48
2023/03/26 12:45:31;;;;;;;13.25;4.82;;;12.20;98.00;;;;;;5011022;28;20026;-49
2023/03/26 12:48:17;;;;;;;19.00;5.82;;;12.10;98.10;;;;;;5026772;28;20478;-51
2023/03/26 12:51:30;;;;;;;12.27;5.28;;;12.10;98.60;;;;;;5031097;28;20029;-50
2023/03/26 12:54:25;;;;;;;8.45;4.10;;;12.10;97.70;;;;;;5017428;28;20022;-51
2023/03/26 12:57:31;;;;;;;11.38;4.40;;;11.90;97.80;;;;;;4997284;28;20537;-48
2023/03/26 13:00:46;;;;;;;13.32;4.43;;;12.00;97.50;;;;;;4992818;28;20148;-49
2023/03/26 13:03:56;;;;;;;15.23;5.33;;;12.00;97.70;;;;;;4941391;28;20038;-50
2023/03/26 13:06:55;;;;;;;14.00;5.13;;;12.10;97.70;;;;;;5029172;28;20091;-50
2023/03/26 13:10:06;;;;;;;12.93;3.85;;;12.10;97.80;;;;;;5012000;28;20034;-51
2023/03/26 13:13:38;;;;;;;12.02;4.13;;;12.10;98.00;;;;;;5011208;28;20536;-52
2023/03/26 13:16:32;;;;;;;10.45;4.00;;;12.10;98.00;;;;;;5011447;28;20018;-53
2023/03/26 13:19:34;;;;;;;9.27;3.72;;;12.10;98.30;;;;;;4996963;28;20072;-50
2023/03/26 13:22:49;;;;;;;11.52;3.75;;;11.90;99.40;;;;;;5009452;28;20026;-52
2023/03/26 13:25:59;;;;;;;10.18;3.13;;;11.30;99.90;;;;;;5010714;28;20675;-53
2023/03/26 13:28:54;;;;;;;9.07;3.20;;;11.10;99.90;;;;;;4995389;28;20523;-52
2023/03/26 13:31:56;;;;;;;11.13;3.17;;;11.00;99.90;;;;;;5004484;28;20022;-56
2023/03/26 13:35:09;;;;;;;9.48;3.42;;;11.00;99.90;;;;;;4990808;28;20109;-51
2023/03/26 13:38:14;;;;;;;6.18;2.92;;;11.00;99.90;;;;;;4985140;28;20355;-51
2023/03/26 13:41:20;;;;;;;6.55;2.75;;;10.90;99.90;;;;;;5010352;28;20026;-51
2023/03/26 13:44:17;;;;;;;10.15;3.45;;;10.90;99.90;;;;;;5009209;28;20390;-50
2023/03/26 13:47:11;;;;;;;7.35;2.47;;;11.00;99.90;;;;;;5010394;28;20026;-48
2023/03/26 13:50:01;;;;;;;6.28;2.30;;;10.90;99.90;;;;;;5010808;28;20030;-51
2023/03/26 13:53:09;;;;;;;7.40;2.47;;;11.10;99.90;;;;;;5010504;28;20034;-49
2023/03/26 13:55:59;;;;;;;6.22;2.47;;;11.00;99.90;;;;;;5004382;28;20117;-50
2023/03/26 13:59:27;;;;;;;4.72;2.30;;;10.80;99.90;;;;;;4995677;28;20034;-49
2023/03/26 14:02:22;;;;;;;4.05;2.08;;;10.40;99.90;;;;;;4911553;29;20040;-48
2023/03/26 14:05:15;;;;;;;5.55;2.60;;;10.40;99.90;;;;;;4998852;28;20441;-47
2023/03/26 14:08:40;;;;;;;4.50;2.30;;;10.10;99.90;;;;;;5010382;28;20037;-51
2023/03/26 14:11:55;;;;;;;6.47;2.53;;;10.00;99.90;;;;;;5009576;28;20514;-48
2023/03/26 14:15:05;;;;;;;4.68;2.85;;;9.90;99.90;;;;;;4991010;28;20038;-51
2023/03/26 14:18:01;;;;;;;6.10;2.33;;;9.80;99.90;;;;;;4998050;28;20506;-48
2023/03/26 14:21:25;;;;;;;5.40;2.88;;;9.80;99.90;;;;;;5010648;28;20033;-51
2023/03/26 14:24:43;;;;;;;6.32;3.08;;;9.70;99.90;;;;;;5009878;28;20033;-53
2023/03/26 14:27:47;;;;;;;6.05;2.58;;;9.70;99.90;;;;;;5003675;28;20034;-53
2023/03/26 14:31:28;;;;;;;4.45;2.35;;;9.80;99.90;;;;;;5006761;28;20023;-51
2023/03/26 14:34:44;;;;;;;8.40;3.35;;;9.70;99.90;;;;;;4957135;28;20082;-50
2023/03/26 14:37:51;;;;;;;6.30;3.03;;;9.60;99.90;;;;;;4999311;28;20522;-50
2023/03/26 14:40:56;;;;;;;5.60;2.67;;;9.60;99.90;;;;;;4991541;28;20042;-57
2023/03/26 14:44:34;;;;;;;9.15;2.67;;;9.60;99.90;;;;;;5004482;28;20636;-55
2023/03/26 14:47:24;;;;;;;4.10;2.55;;;9.80;99.90;;;;;;4910733;29;20111;-54
2023/03/26 14:50:34;;;;;;;5.65;2.88;;;9.80;99.90;;;;;;5011319;28;20030;-52
2023/03/26 14:53:36;;;;;;;5.63;2.95;;;9.80;99.90;;;;;;5011079;28;20030;-54
2023/03/26 14:56:37;;;;;;;8.30;3.30;;;9.90;99.90;;;;;;5012615;28;20036;-56
2023/03/26 14:59:54;;;;;;;6.25;2.70;;;9.90;99.90;;;;;;5013209;28;20030;-53
2023/03/26 15:03:08;;;;;;;6.32;2.60;;;9.90;99.90;;;;;;5012785;28;20561;-54
2023/03/26 15:05:56;;;;;;;8.25;2.90;;;10.00;99.90;;;;;;4980225;28;20062;-55
2023/03/26 15:08:52;;;;;;;5.40;2.75;;;10.00;99.90;;;;;;5004714;28;20037;-55
2023/03/26 15:11:52;;;;;;;7.68;3.28;;;10.00;99.90;;;;;;5013017;28;20033;-56
2023/03/26 15:15:16;;;;;;;10.13;4.07;;;10.00;99.90;;;;;;5014598;28;20062;-58
2023/03/26 15:18:18;;;;;;;7.75;3.35;;;9.80;99.90;;;;;;4974093;28;20502;-54